Risultati

Download risultati: TXT, XML IOF

Campionato Italiano Middle - WRE
W ELITE - lunghezza: 3600mt - dislivello: 185mt
pos. cat. tempo Nome società p. LB p. CITA vel.
1WE *00:30:41KIRCHLECHNER ChristineSPORTCLUB MERAN A.S.D.98.530:05:3700:30:41|3600|185|30.68
2WE *00:32:35PATSCHEIDER LiaSPORTCLUB MERAN A.S.D.87.210:05:5800:32:35|3600|185|32.58
3WE *00:33:08TORGGLER HeikeSPORTCLUB MERAN A.S.D.84.290:06:0400:33:08|3600|185|33.13
4WE *00:33:57SCALET CarlottaSPORTCLUB MERAN A.S.D.80.220:06:1300:33:57|3600|185|33.95
5WE *00:34:41SCALET NicoleU.S. PRIMIERO A.S.D.76.800:06:2100:34:41|3600|185|34.68
6WE *00:34:44CURZIO LuciaPOLISPORTIVA 'G. MASI'76.570:06:2200:34:44|3600|185|34.73
7WE *00:36:32CAGLIO AnnaA.S.D. POLISPORTIVA BESAN...69.070:06:4200:36:32|3600|185|36.53
8WE *00:37:47ORLER JessicaU.S. PRIMIERO A.S.D.64.480:06:5500:37:47|3600|185|37.78
9WE *00:39:04BRANDI AdrienneCORSAORIENTAMENTO CLUB RO...60.220:07:1000:39:04|3600|185|39.07
10WE *00:39:40TORGGLER JuttaSPORTCLUB MERAN A.S.D.58.370:07:1600:39:40|3600|185|39.67
11WE *00:40:47CRIPPA Maria ChiaraA.S.D. POLISPORTIVA BESAN...55.140:07:2800:40:47|3600|185|40.78
12WE *00:44:00ZAGONEL ViolaU.S. PRIMIERO A.S.D.47.160:08:0400:44:00|3600|185|44.00
13WE *00:44:43BRANDI AndreinaCORSAORIENTAMENTO CLUB RO...45.620:08:1200:44:43|3600|185|44.72
14WE *00:45:09DI FURIA SaraIKP44.720:08:1700:45:09|3600|185|45.15
15WE *00:47:07GAIGHER PamelaGRONLAIT ORIENTEERING TEA...40.940:08:3800:47:07|3600|185|47.12
16WE *00:47:16BENIGNI AnnaA.D. TRENT-O40.670:08:4000:47:16|3600|185|47.27
17WE *00:47:49CARLUCCIO LauraPOLISPORTIVA 'G. MASI'39.710:08:4600:47:49|3600|185|47.82
18WE *00:48:57SAGGIN IreneA.S.D. EREBUS ORIENTAMENT...37.830:08:5800:48:57|3600|185|48.95
19WE *00:53:33ARRIGONI AlessandraA.S.D. POLISPORTIVA BESAN...31.370:09:4900:53:33|3600|185|53.55
20WE *00:54:36ANEDDA NicoleA.S.D. ORIENTEERING G. GA...30.110:10:0100:54:36|3600|185|54.60
21WE *00:54:57ANEDDA FedericaA.S.D. ORIENTEERING G. GA...29.710:10:0400:54:57|3600|185|54.95
22WE *00:55:22FRANZ GiadaIKP29.250:10:0900:55:22|3600|185|55.37
23WE *00:57:11COMELLINI AntheaTUMIZA ORIENTEERING CHIAR...27.330:10:2900:57:11|3600|185|57.18
24WE *00:57:24BELLOTTI CristinaIKP27.110:10:3100:57:24|3600|185|57.40
25WE *00:59:17CAGLIO ChiaraA.S.D. POLISPORTIVA BESAN...25.320:10:5200:59:17|3600|185|59.28
NPWE *00:00:00CASALINI MonicaIKP0:00:0000:00:00|3600|185|0.00
NPWE *00:00:00CORONA MartinaIKP0:00:0000:00:00|3600|185|0.00
PMWE *00:33:35POZZEBON IreneA.S.D. POLISPORTIVA BESAN...0:06:0900:33:35|3600|185|33.58
RIWE *00:00:00NEGRI FedericaA.S.D. POLISPORTIVA BESAN...0:00:0000:00:00|3600|185|0.00
RIWE *00:00:00DAL BELLO SaraA.S.D. EREBUS ORIENTAMENT...0:00:0000:00:00|3600|185|0.00
Risultati per pagina:

PARTNER UFFICIALI FISO